sensor_id;sensor_type;location;lat;lon;timestamp;pressure;altitude;pressure_sealevel;temperature;humidity
78383;BME280;67668;52.294;4.692;2023-08-06T00:01:49;100535.06;;;16.90;79.07
78383;BME280;67668;52.294;4.692;2023-08-06T00:04:15;100536.91;;;16.89;79.31
78383;BME280;67668;52.294;4.692;2023-08-06T00:06:40;100535.06;;;16.90;79.32
78383;BME280;67668;52.294;4.692;2023-08-06T00:09:06;100536.06;;;16.89;79.08
78383;BME280;67668;52.294;4.692;2023-08-06T00:11:31;100530.88;;;16.87;79.14
78383;BME280;67668;52.294;4.692;2023-08-06T00:13:57;100536.22;;;16.87;79.50
78383;BME280;67668;52.294;4.692;2023-08-06T00:16:22;100527.22;;;16.88;79.55
78383;BME280;67668;52.294;4.692;2023-08-06T00:18:47;100523.53;;;16.89;79.63
78383;BME280;67668;52.294;4.692;2023-08-06T00:21:13;100532.56;;;16.88;79.65
78383;BME280;67668;52.294;4.692;2023-08-06T00:23:39;100527.41;;;16.87;79.76
78383;BME280;67668;52.294;4.692;2023-08-06T00:26:05;100534.59;;;16.86;79.45
78383;BME280;67668;52.294;4.692;2023-08-06T00:28:30;100532.94;;;16.85;79.55
78383;BME280;67668;52.294;4.692;2023-08-06T00:30:56;100537.28;;;16.86;79.74
78383;BME280;67668;52.294;4.692;2023-08-06T00:33:22;100535.59;;;16.85;79.30
78383;BME280;67668;52.294;4.692;2023-08-06T00:35:48;100532.31;;;16.83;79.36
78383;BME280;67668;52.294;4.692;2023-08-06T00:38:13;100541.13;;;16.84;79.81
78383;BME280;67668;52.294;4.692;2023-08-06T00:40:38;100535.78;;;16.84;79.90
78383;BME280;67668;52.294;4.692;2023-08-06T00:43:04;100531.28;;;16.84;80.21
78383;BME280;67668;52.294;4.692;2023-08-06T00:45:30;100537.66;;;16.83;80.06
78383;BME280;67668;52.294;4.692;2023-08-06T00:47:58;100533.94;;;16.84;79.92
78383;BME280;67668;52.294;4.692;2023-08-06T00:50:25;100531.28;;;16.84;80.14
78383;BME280;67668;52.294;4.692;2023-08-06T00:52:51;100530.44;;;16.84;80.21
78383;BME280;67668;52.294;4.692;2023-08-06T00:55:16;100539.28;;;16.84;80.04
78383;BME280;67668;52.294;4.692;2023-08-06T00:57:43;100541.97;;;16.84;80.10
78383;BME280;67668;52.294;4.692;2023-08-06T01:00:09;100534.97;;;16.83;80.04
78383;BME280;67668;52.294;4.692;2023-08-06T01:02:34;100534.31;;;16.81;79.46
78383;BME280;67668;52.294;4.692;2023-08-06T01:05:01;100534.31;;;16.81;79.82
78383;BME280;67668;52.294;4.692;2023-08-06T01:07:33;100529.81;;;16.82;80.23
78383;BME280;67668;52.294;4.692;2023-08-06T01:10:15;100534.31;;;16.81;80.21
78383;BME280;67668;52.294;4.692;2023-08-06T01:12:45;100533.31;;;16.82;80.36
78383;BME280;67668;52.294;4.692;2023-08-06T01:15:25;100536.16;;;16.81;80.97
78383;BME280;67668;52.294;4.692;2023-08-06T01:17:53;100538.66;;;16.82;80.52
78383;BME280;67668;52.294;4.692;2023-08-06T01:20:19;100537.84;;;16.82;80.53
78383;BME280;67668;52.294;4.692;2023-08-06T01:22:45;100535.38;;;16.80;80.59
78383;BME280;67668;52.294;4.692;2023-08-06T01:25:14;100535.38;;;16.80;80.37
78383;BME280;67668;52.294;4.692;2023-08-06T01:27:47;100538.03;;;16.80;80.64
78383;BME280;67668;52.294;4.692;2023-08-06T01:30:16;100533.69;;;16.79;80.24
78383;BME280;67668;52.294;4.692;2023-08-06T01:32:44;100538.38;;;16.77;80.14
78383;BME280;67668;52.294;4.692;2023-08-06T01:35:12;100538.22;;;16.79;80.64
78383;BME280;67668;52.294;4.692;2023-08-06T01:37:38;100540.88;;;16.79;80.73
78383;BME280;67668;52.294;4.692;2023-08-06T01:40:11;100537.38;;;16.78;80.59
78383;BME280;67668;52.294;4.692;2023-08-06T01:42:39;100537.59;;;16.77;80.34
78383;BME280;67668;52.294;4.692;2023-08-06T01:45:07;100535.91;;;16.76;80.37
78383;BME280;67668;52.294;4.692;2023-08-06T01:47:32;100542.09;;;16.76;80.24
78383;BME280;67668;52.294;4.692;2023-08-06T01:50:00;100542.09;;;16.76;80.43
78383;BME280;67668;52.294;4.692;2023-08-06T01:52:26;100541.44;;;16.74;80.57
78383;BME280;67668;52.294;4.692;2023-08-06T01:54:52;100545.78;;;16.75;80.52
78383;BME280;67668;52.294;4.692;2023-08-06T01:57:17;100548.44;;;16.75;80.77
78383;BME280;67668;52.294;4.692;2023-08-06T01:59:43;100543.28;;;16.74;80.97
78383;BME280;67668;52.294;4.692;2023-08-06T02:02:08;100541.44;;;16.74;81.07
78383;BME280;67668;52.294;4.692;2023-08-06T02:04:33;100541.44;;;16.74;81.04
78383;BME280;67668;52.294;4.692;2023-08-06T02:06:59;100549.47;;;16.74;80.74
78383;BME280;67668;52.294;4.692;2023-08-06T02:09:24;100552.13;;;16.74;80.80
78383;BME280;67668;52.294;4.692;2023-08-06T02:11:50;100559.53;;;16.72;80.51
78383;BME280;67668;52.294;4.692;2023-08-06T02:14:15;100561.38;;;16.72;80.75
78383;BME280;67668;52.294;4.692;2023-08-06T02:16:41;100552.50;;;16.71;81.00
78383;BME280;67668;52.294;4.692;2023-08-06T02:19:07;100550.03;;;16.70;80.70
78383;BME280;67668;52.294;4.692;2023-08-06T02:21:32;100558.06;;;16.70;80.87
78383;BME280;67668;52.294;4.692;2023-08-06T02:23:58;100550.22;;;16.68;80.99
78383;BME280;67668;52.294;4.692;2023-08-06T02:26:23;100556.22;;;16.70;80.99
78383;BME280;67668;52.294;4.692;2023-08-06T02:28:49;100552.88;;;16.68;80.96
78383;BME280;67668;52.294;4.692;2023-08-06T02:31:14;100553.72;;;16.69;81.36
78383;BME280;67668;52.294;4.692;2023-08-06T02:33:39;100549.22;;;16.69;81.54
78383;BME280;67668;52.294;4.692;2023-08-06T02:36:05;100552.88;;;16.68;80.94
78383;BME280;67668;52.294;4.692;2023-08-06T02:38:32;100558.44;;;16.67;80.70
78383;BME280;67668;52.294;4.692;2023-08-06T02:40:57;100553.28;;;16.65;81.16
78383;BME280;67668;52.294;4.692;2023-08-06T02:43:23;100552.44;;;16.65;81.35
78383;BME280;67668;52.294;4.692;2023-08-06T02:45:48;100549.75;;;16.65;81.05
78383;BME280;67668;52.294;4.692;2023-08-06T02:48:14;100558.63;;;16.65;81.11
78383;BME280;67668;52.294;4.692;2023-08-06T02:50:40;100556.94;;;16.64;80.78
78383;BME280;67668;52.294;4.692;2023-08-06T02:53:07;100546.25;;;16.64;81.03
78383;BME280;67668;52.294;4.692;2023-08-06T02:55:33;100551.59;;;16.64;81.03
78383;BME280;67668;52.294;4.692;2023-08-06T02:58:00;100558.81;;;16.64;81.20
78383;BME280;67668;52.294;4.692;2023-08-06T03:00:26;100552.66;;;16.63;81.21
78383;BME280;67668;52.294;4.692;2023-08-06T03:02:52;100548.31;;;16.62;81.27
78383;BME280;67668;52.294;4.692;2023-08-06T03:05:18;100561.66;;;16.62;81.18
78383;BME280;67668;52.294;4.692;2023-08-06T03:07:43;100560.66;;;16.63;81.41
78383;BME280;67668;52.294;4.692;2023-08-06T03:10:09;100560.00;;;16.61;80.89
78383;BME280;67668;52.294;4.692;2023-08-06T03:12:34;100558.38;;;16.60;81.43
78383;BME280;67668;52.294;4.692;2023-08-06T03:15:00;100565.53;;;16.60;81.08
78383;BME280;67668;52.294;4.692;2023-08-06T03:17:26;100560.38;;;16.58;81.41
78383;BME280;67668;52.294;4.692;2023-08-06T03:19:51;100571.28;;;16.57;81.67
78383;BME280;67668;52.294;4.692;2023-08-06T03:22:17;100567.91;;;16.54;81.82
78383;BME280;67668;52.294;4.692;2023-08-06T03:24:42;100568.28;;;16.51;81.35
78383;BME280;67668;52.294;4.692;2023-08-06T03:27:07;100572.78;;;16.51;81.29
78383;BME280;67668;52.294;4.692;2023-08-06T03:29:33;100572.78;;;16.51;81.49
78383;BME280;67668;52.294;4.692;2023-08-06T03:31:58;100578.13;;;16.51;81.29
78383;BME280;67668;52.294;4.692;2023-08-06T03:34:24;100584.50;;;16.50;81.19
78383;BME280;67668;52.294;4.692;2023-08-06T03:36:49;100575.22;;;16.46;79.81
78383;BME280;67668;52.294;4.692;2023-08-06T03:39:14;100571.25;;;16.42;79.97
78383;BME280;67668;52.294;4.692;2023-08-06T03:41:40;100573.28;;;16.40;80.00
78383;BME280;67668;52.294;4.692;2023-08-06T03:44:05;100578.44;;;16.41;80.29
78383;BME280;67668;52.294;4.692;2023-08-06T03:46:31;100580.09;;;16.42;80.77
78383;BME280;67668;52.294;4.692;2023-08-06T03:49:00;100580.09;;;16.42;80.50
78383;BME280;67668;52.294;4.692;2023-08-06T03:51:26;100578.25;;;16.43;80.35
78383;BME280;67668;52.294;4.692;2023-08-06T03:53:51;100575.59;;;16.43;80.10
78383;BME280;67668;52.294;4.692;2023-08-06T03:56:17;100572.06;;;16.42;80.07
78383;BME280;67668;52.294;4.692;2023-08-06T03:58:42;100575.59;;;16.43;80.19
78383;BME280;67668;52.294;4.692;2023-08-06T04:01:08;100579.88;;;16.44;80.06
78383;BME280;67668;52.294;4.692;2023-08-06T04:03:34;100576.41;;;16.43;80.14
78383;BME280;67668;52.294;4.692;2023-08-06T04:06:02;100575.75;;;16.41;79.93
78383;BME280;67668;52.294;4.692;2023-08-06T04:08:27;100583.75;;;16.41;79.98
78383;BME280;67668;52.294;4.692;2023-08-06T04:10:53;100580.25;;;16.41;80.03
78383;BME280;67668;52.294;4.692;2023-08-06T04:13:19;100576.78;;;16.40;79.78
78383;BME280;67668;52.294;4.692;2023-08-06T04:15:44;100583.13;;;16.39;80.08
78383;BME280;67668;52.294;4.692;2023-08-06T04:18:10;100572.63;;;16.38;80.13
78383;BME280;67668;52.294;4.692;2023-08-06T04:20:45;100576.31;;;16.37;80.00
78383;BME280;67668;52.294;4.692;2023-08-06T04:23:11;100582.69;;;16.36;80.25
78383;BME280;67668;52.294;4.692;2023-08-06T04:25:36;100578.53;;;16.33;80.03
78383;BME280;67668;52.294;4.692;2023-08-06T04:28:02;100583.22;;;16.31;79.94
78383;BME280;67668;52.294;4.692;2023-08-06T04:30:27;100591.44;;;16.30;80.32
78383;BME280;67668;52.294;4.692;2023-08-06T04:32:53;100596.13;;;16.28;79.92
78383;BME280;67668;52.294;4.692;2023-08-06T04:35:18;100589.31;;;16.25;79.84
78383;BME280;67668;52.294;4.692;2023-08-06T04:37:44;100588.47;;;16.25;80.20
78383;BME280;67668;52.294;4.692;2023-08-06T04:40:09;100594.84;;;16.24;80.26
78383;BME280;67668;52.294;4.692;2023-08-06T04:42:35;100602.84;;;16.24;80.84
78383;BME280;67668;52.294;4.692;2023-08-06T04:45:02;100611.88;;;16.23;80.68
78383;BME280;67668;52.294;4.692;2023-08-06T04:47:27;100608.53;;;16.21;80.62
78383;BME280;67668;52.294;4.692;2023-08-06T04:49:53;100611.22;;;16.21;81.07
78383;BME280;67668;52.294;4.692;2023-08-06T04:52:19;100604.22;;;16.20;80.87
78383;BME280;67668;52.294;4.692;2023-08-06T04:54:45;100614.09;;;16.19;80.72
78383;BME280;67668;52.294;4.692;2023-08-06T04:57:10;100614.25;;;16.18;80.83
78383;BME280;67668;52.294;4.692;2023-08-06T04:59:35;100620.41;;;16.18;81.25
78383;BME280;67668;52.294;4.692;2023-08-06T05:02:01;100615.28;;;16.17;81.00
78383;BME280;67668;52.294;4.692;2023-08-06T05:04:27;100624.28;;;16.16;81.09
78383;BME280;67668;52.294;4.692;2023-08-06T05:06:52;100614.63;;;16.15;80.73
78383;BME280;67668;52.294;4.692;2023-08-06T05:09:18;100621.00;;;16.14;80.88
78383;BME280;67668;52.294;4.692;2023-08-06T05:11:43;100624.66;;;16.13;80.99
78383;BME280;67668;52.294;4.692;2023-08-06T05:14:09;100630.00;;;16.13;80.87
78383;BME280;67668;52.294;4.692;2023-08-06T05:16:34;100634.34;;;16.14;81.04
78383;BME280;67668;52.294;4.692;2023-08-06T05:18:59;100633.69;;;16.12;81.09
78383;BME280;67668;52.294;4.692;2023-08-06T05:21:26;100629.38;;;16.11;80.96
78383;BME280;67668;52.294;4.692;2023-08-06T05:23:54;100634.72;;;16.11;81.11
78383;BME280;67668;52.294;4.692;2023-08-06T05:26:19;100639.38;;;16.09;80.72
78383;BME280;67668;52.294;4.692;2023-08-06T05:28:46;100645.56;;;16.09;81.38
78383;BME280;67668;52.294;4.692;2023-08-06T05:31:12;100648.22;;;16.09;81.32
78383;BME280;67668;52.294;4.692;2023-08-06T05:33:37;100649.06;;;16.10;81.41
78383;BME280;67668;52.294;4.692;2023-08-06T05:36:03;100653.56;;;16.09;81.29
78383;BME280;67668;52.294;4.692;2023-08-06T05:38:29;100654.41;;;16.10;81.45
78383;BME280;67668;52.294;4.692;2023-08-06T05:40:55;100675.75;;;16.10;81.60
78383;BME280;67668;52.294;4.692;2023-08-06T05:43:21;100676.59;;;16.10;81.75
78383;BME280;67668;52.294;4.692;2023-08-06T05:45:49;100674.09;;;16.09;81.84
78383;BME280;67668;52.294;4.692;2023-08-06T05:48:14;100673.25;;;16.08;81.85
78383;BME280;67668;52.294;4.692;2023-08-06T05:50:40;100675.94;;;16.08;81.97
78383;BME280;67668;52.294;4.692;2023-08-06T05:53:06;100683.94;;;16.08;81.81
78383;BME280;67668;52.294;4.692;2023-08-06T05:55:32;100687.44;;;16.09;81.90
78383;BME280;67668;52.294;4.692;2023-08-06T05:57:58;100683.94;;;16.08;82.01
78383;BME280;67668;52.294;4.692;2023-08-06T06:00:23;100679.63;;;16.07;81.94
78383;BME280;67668;52.294;4.692;2023-08-06T06:02:49;100697.28;;;16.08;82.06
78383;BME280;67668;52.294;4.692;2023-08-06T06:05:14;100696.28;;;16.09;82.26
78383;BME280;67668;52.294;4.692;2023-08-06T06:07:39;100697.28;;;16.08;82.05
78383;BME280;67668;52.294;4.692;2023-08-06T06:10:05;100705.28;;;16.08;82.08
78383;BME280;67668;52.294;4.692;2023-08-06T06:12:31;100698.13;;;16.09;82.30
78383;BME280;67668;52.294;4.692;2023-08-06T06:14:56;100703.66;;;16.07;82.20
78383;BME280;67668;52.294;4.692;2023-08-06T06:17:22;100704.47;;;16.08;82.31
78383;BME280;67668;52.294;4.692;2023-08-06T06:19:47;100712.66;;;16.06;82.08
78383;BME280;67668;52.294;4.692;2023-08-06T06:22:13;100707.31;;;16.06;82.15
78383;BME280;67668;52.294;4.692;2023-08-06T06:24:39;100711.84;;;16.06;82.21
78383;BME280;67668;52.294;4.692;2023-08-06T06:27:04;100716.19;;;16.07;82.31
78383;BME280;67668;52.294;4.692;2023-08-06T06:29:30;100711.84;;;16.06;82.40
78383;BME280;67668;52.294;4.692;2023-08-06T06:31:55;100713.50;;;16.07;82.40
78383;BME280;67668;52.294;4.692;2023-08-06T06:34:21;100718.84;;;16.07;82.39
78383;BME280;67668;52.294;4.692;2023-08-06T06:36:47;100719.69;;;16.07;82.32
78383;BME280;67668;52.294;4.692;2023-08-06T06:39:12;100722.50;;;16.06;82.41
78383;BME280;67668;52.294;4.692;2023-08-06T06:41:38;100721.50;;;16.07;82.34
78383;BME280;67668;52.294;4.692;2023-08-06T06:44:03;100723.97;;;16.08;82.47
78383;BME280;67668;52.294;4.692;2023-08-06T06:46:29;100732.81;;;16.09;82.55
78383;BME280;67668;52.294;4.692;2023-08-06T06:48:54;100735.50;;;16.09;82.67
78383;BME280;67668;52.294;4.692;2023-08-06T06:51:19;100736.34;;;16.09;82.75
78383;BME280;67668;52.294;4.692;2023-08-06T06:53:46;100740.69;;;16.10;82.60
78383;BME280;67668;52.294;4.692;2023-08-06T06:56:11;100735.50;;;16.09;82.81
78383;BME280;67668;52.294;4.692;2023-08-06T06:58:37;100735.50;;;16.09;82.71
78383;BME280;67668;52.294;4.692;2023-08-06T07:01:07;100743.34;;;16.10;82.86
78383;BME280;67668;52.294;4.692;2023-08-06T07:03:32;100730.81;;;16.11;82.77
78383;BME280;67668;52.294;4.692;2023-08-06T07:05:59;100736.16;;;16.11;82.87
78383;BME280;67668;52.294;4.692;2023-08-06T07:08:30;100728.16;;;16.11;82.89
78383;BME280;67668;52.294;4.692;2023-08-06T07:11:04;100736.16;;;16.11;82.86
78383;BME280;67668;52.294;4.692;2023-08-06T07:13:30;100736.81;;;16.13;82.96
78383;BME280;67668;52.294;4.692;2023-08-06T07:15:56;100741.31;;;16.12;82.98
78383;BME280;67668;52.294;4.692;2023-08-06T07:18:22;100748.31;;;16.13;82.95
78383;BME280;67668;52.294;4.692;2023-08-06T07:20:50;100750.16;;;16.13;83.00
78383;BME280;67668;52.294;4.692;2023-08-06T07:23:16;100744.81;;;16.13;83.17
78383;BME280;67668;52.294;4.692;2023-08-06T07:25:42;100743.81;;;16.14;83.23
78383;BME280;67668;52.294;4.692;2023-08-06T07:28:08;100746.50;;;16.14;83.29
78383;BME280;67668;52.294;4.692;2023-08-06T07:30:33;100756.34;;;16.13;83.23
78383;BME280;67668;52.294;4.692;2023-08-06T07:32:58;100745.66;;;16.13;83.25
78383;BME280;67668;52.294;4.692;2023-08-06T07:35:24;100754.50;;;16.14;82.93
78383;BME280;67668;52.294;4.692;2023-08-06T07:37:49;100753.66;;;16.13;83.18
78383;BME280;67668;52.294;4.692;2023-08-06T07:40:15;100754.50;;;16.14;83.14
78383;BME280;67668;52.294;4.692;2023-08-06T07:42:40;100761.47;;;16.15;83.12
78383;BME280;67668;52.294;4.692;2023-08-06T07:45:07;100765.81;;;16.16;83.06
78383;BME280;67668;52.294;4.692;2023-08-06T07:47:32;100764.81;;;16.17;83.09
78383;BME280;67668;52.294;4.692;2023-08-06T07:49:58;100756.81;;;16.17;83.08
78383;BME280;67668;52.294;4.692;2023-08-06T07:52:23;100758.44;;;16.18;83.03
78383;BME280;67668;52.294;4.692;2023-08-06T07:54:48;100765.47;;;16.19;82.98
78383;BME280;67668;52.294;4.692;2023-08-06T07:57:14;100765.47;;;16.19;83.15
78383;BME280;67668;52.294;4.692;2023-08-06T07:59:40;100762.63;;;16.20;83.12
78383;BME280;67668;52.294;4.692;2023-08-06T08:02:05;100759.13;;;16.20;83.14
78383;BME280;67668;52.294;4.692;2023-08-06T08:04:31;100766.94;;;16.21;83.05
78383;BME280;67668;52.294;4.692;2023-08-06T08:06:56;100771.44;;;16.21;82.99
78383;BME280;67668;52.294;4.692;2023-08-06T08:09:21;100775.78;;;16.22;82.95
78383;BME280;67668;52.294;4.692;2023-08-06T08:11:47;100772.94;;;16.23;83.47
78383;BME280;67668;52.294;4.692;2023-08-06T08:14:12;100771.09;;;16.24;82.80
78383;BME280;67668;52.294;4.692;2023-08-06T08:16:38;100768.44;;;16.24;82.96
78383;BME280;67668;52.294;4.692;2023-08-06T08:19:03;100766.56;;;16.24;83.10
78383;BME280;67668;52.294;4.692;2023-08-06T08:21:29;100773.41;;;16.27;83.10
78383;BME280;67668;52.294;4.692;2023-08-06T08:23:54;100772.56;;;16.26;82.90
78383;BME280;67668;52.294;4.692;2023-08-06T08:26:20;100775.25;;;16.26;83.08
78383;BME280;67668;52.294;4.692;2023-08-06T08:28:46;100778.56;;;16.28;83.11
78383;BME280;67668;52.294;4.692;2023-08-06T08:31:12;100778.38;;;16.30;83.05
78383;BME280;67668;52.294;4.692;2023-08-06T08:33:40;100780.03;;;16.31;83.37
78383;BME280;67668;52.294;4.692;2023-08-06T08:36:05;100779.03;;;16.32;83.37
78383;BME280;67668;52.294;4.692;2023-08-06T08:38:31;100778.88;;;16.33;83.21
78383;BME280;67668;52.294;4.692;2023-08-06T08:40:57;100776.19;;;16.33;83.16
78383;BME280;67668;52.294;4.692;2023-08-06T08:43:23;100781.34;;;16.35;83.10
78383;BME280;67668;52.294;4.692;2023-08-06T08:45:53;100785.69;;;16.36;83.28
78383;BME280;67668;52.294;4.692;2023-08-06T08:48:21;100784.84;;;16.35;83.08
78383;BME280;67668;52.294;4.692;2023-08-06T08:50:48;100791.50;;;16.39;83.21
78383;BME280;67668;52.294;4.692;2023-08-06T08:53:16;100792.13;;;16.41;83.69
78383;BME280;67668;52.294;4.692;2023-08-06T08:55:43;100790.28;;;16.42;84.16
78383;BME280;67668;52.294;4.692;2023-08-06T08:58:08;100784.94;;;16.42;83.76
78383;BME280;67668;52.294;4.692;2023-08-06T09:00:34;100789.28;;;16.43;83.52
78383;BME280;67668;52.294;4.692;2023-08-06T09:03:01;100786.25;;;16.46;83.31
78383;BME280;67668;52.294;4.692;2023-08-06T09:05:30;100798.25;;;16.50;83.50
78383;BME280;67668;52.294;4.692;2023-08-06T09:08:04;100792.72;;;16.51;83.50
78383;BME280;67668;52.294;4.692;2023-08-06T09:10:30;100796.03;;;16.53;83.34
78383;BME280;67668;52.294;4.692;2023-08-06T09:12:56;100803.91;;;16.55;83.93
78383;BME280;67668;52.294;4.692;2023-08-06T09:15:26;100803.53;;;16.58;84.06
78383;BME280;67668;52.294;4.692;2023-08-06T09:17:55;100804.00;;;16.62;83.77
78383;BME280;67668;52.294;4.692;2023-08-06T09:20:20;100806.50;;;16.63;83.70
78383;BME280;67668;52.294;4.692;2023-08-06T09:22:46;100813.13;;;16.67;83.44
78383;BME280;67668;52.294;4.692;2023-08-06T09:25:23;100821.59;;;16.71;83.51
78383;BME280;67668;52.294;4.692;2023-08-06T09:27:53;100812.41;;;16.73;83.33
78383;BME280;67668;52.294;4.692;2023-08-06T09:30:36;100819.88;;;16.78;83.60
78383;BME280;67668;52.294;4.692;2023-08-06T09:33:01;100819.50;;;16.81;83.04
78383;BME280;67668;52.294;4.692;2023-08-06T09:35:31;100825.31;;;16.84;82.61
78383;BME280;67668;52.294;4.692;2023-08-06T09:38:09;100829.50;;;16.87;82.62
78383;BME280;67668;52.294;4.692;2023-08-06T09:40:36;100837.94;;;16.90;82.90
78383;BME280;67668;52.294;4.692;2023-08-06T09:43:02;100846.63;;;16.92;82.47
78383;BME280;67668;52.294;4.692;2023-08-06T09:45:32;100841.94;;;16.94;81.92
78383;BME280;67668;52.294;4.692;2023-08-06T09:48:00;100845.06;;;16.98;81.85
78383;BME280;67668;52.294;4.692;2023-08-06T09:50:32;100847.38;;;17.01;82.31
78383;BME280;67668;52.294;4.692;2023-08-06T09:52:59;100858.53;;;17.04;81.77
78383;BME280;67668;52.294;4.692;2023-08-06T09:55:25;100856.53;;;17.07;81.26
78383;BME280;67668;52.294;4.692;2023-08-06T09:57:55;100859.00;;;17.08;81.22
78383;BME280;67668;52.294;4.692;2023-08-06T10:00:21;100865.19;;;17.09;81.25
78383;BME280;67668;52.294;4.692;2023-08-06T10:02:47;100866.66;;;17.11;81.22
78383;BME280;67668;52.294;4.692;2023-08-06T10:05:15;100870.00;;;17.13;81.00
78383;BME280;67668;52.294;4.692;2023-08-06T10:07:43;100873.47;;;17.14;81.04
78383;BME280;67668;52.294;4.692;2023-08-06T10:10:09;100877.81;;;17.15;80.91
78383;BME280;67668;52.294;4.692;2023-08-06T10:12:40;100878.50;;;17.17;80.87
78383;BME280;67668;52.294;4.692;2023-08-06T10:15:14;100884.63;;;17.17;80.83
78383;BME280;67668;52.294;4.692;2023-08-06T10:17:40;100876.63;;;17.17;80.62
78383;BME280;67668;52.294;4.692;2023-08-06T10:20:08;100876.44;;;17.19;80.32
78383;BME280;67668;52.294;4.692;2023-08-06T10:22:34;100879.13;;;17.19;80.36
78383;BME280;67668;52.294;4.692;2023-08-06T10:25:02;100880.78;;;17.20;80.72
78383;BME280;67668;52.294;4.692;2023-08-06T10:30:31;100884.09;;;17.22;80.24
78383;BME280;67668;52.294;4.692;2023-08-06T10:33:01;100886.94;;;17.20;80.21
78383;BME280;67668;52.294;4.692;2023-08-06T10:38:07;100888.81;;;17.20;79.80
78383;BME280;67668;52.294;4.692;2023-08-06T10:40:34;100895.16;;;17.19;79.10
78383;BME280;67668;52.294;4.692;2023-08-06T10:43:03;100897.84;;;17.19;79.62
78383;BME280;67668;52.294;4.692;2023-08-06T10:45:28;100898.69;;;17.19;79.79
78383;BME280;67668;52.294;4.692;2023-08-06T10:47:56;100901.16;;;17.21;79.67
78383;BME280;67668;52.294;4.692;2023-08-06T10:50:22;100902.00;;;17.21;79.98
78383;BME280;67668;52.294;4.692;2023-08-06T10:52:48;100896.47;;;17.23;79.85
78383;BME280;67668;52.294;4.692;2023-08-06T10:55:14;100895.44;;;17.24;79.80
78383;BME280;67668;52.294;4.692;2023-08-06T10:57:47;100904.28;;;17.24;79.74
78383;BME280;67668;52.294;4.692;2023-08-06T11:00:12;100895.63;;;17.22;79.66
78383;BME280;67668;52.294;4.692;2023-08-06T11:02:39;100900.78;;;17.24;79.61
78383;BME280;67668;52.294;4.692;2023-08-06T11:05:07;100906.81;;;17.26;79.69
78383;BME280;67668;52.294;4.692;2023-08-06T11:07:36;100898.78;;;17.26;79.15
78383;BME280;67668;52.294;4.692;2023-08-06T11:10:03;100902.09;;;17.28;79.28
78383;BME280;67668;52.294;4.692;2023-08-06T11:12:30;100901.91;;;17.29;79.53
78383;BME280;67668;52.294;4.692;2023-08-06T11:14:56;100907.91;;;17.31;79.33
78383;BME280;67668;52.294;4.692;2023-08-06T11:17:21;100908.75;;;17.32;79.62
78383;BME280;67668;52.294;4.692;2023-08-06T11:19:47;100908.75;;;17.32;79.17
78383;BME280;67668;52.294;4.692;2023-08-06T11:22:14;100908.38;;;17.35;79.47
78383;BME280;67668;52.294;4.692;2023-08-06T11:24:41;100909.19;;;17.35;79.38
78383;BME280;67668;52.294;4.692;2023-08-06T11:27:16;100908.00;;;17.38;79.71
78383;BME280;67668;52.294;4.692;2023-08-06T11:29:43;100909.66;;;17.39;79.44
78383;BME280;67668;52.294;4.692;2023-08-06T11:32:09;100911.97;;;17.42;79.73
78383;BME280;67668;52.294;4.692;2023-08-06T11:34:36;100910.97;;;17.43;79.54
78383;BME280;67668;52.294;4.692;2023-08-06T11:37:03;100908.94;;;17.45;79.80
78383;BME280;67668;52.294;4.692;2023-08-06T11:39:33;100913.28;;;17.46;79.89
78383;BME280;67668;52.294;4.692;2023-08-06T11:41:59;100913.91;;;17.48;79.98
78383;BME280;67668;52.294;4.692;2023-08-06T11:44:34;100916.41;;;17.49;79.95
78383;BME280;67668;52.294;4.692;2023-08-06T11:47:05;100915.22;;;17.52;80.19
78383;BME280;67668;52.294;4.692;2023-08-06T11:49:57;100913.16;;;17.54;79.83
78383;BME280;67668;52.294;4.692;2023-08-06T11:52:24;100925.38;;;17.56;80.37
78383;BME280;67668;52.294;4.692;2023-08-06T11:55:04;100917.16;;;17.58;80.33
78383;BME280;67668;52.294;4.692;2023-08-06T11:57:35;100925.84;;;17.60;80.03
78383;BME280;67668;52.294;4.692;2023-08-06T12:00:06;100925.66;;;17.62;80.07
78383;BME280;67668;52.294;4.692;2023-08-06T12:02:33;100923.63;;;17.64;80.13
78383;BME280;67668;52.294;4.692;2023-08-06T12:05:11;100924.44;;;17.64;79.90
78383;BME280;67668;52.294;4.692;2023-08-06T12:07:41;100931.28;;;17.67;80.16
78383;BME280;67668;52.294;4.692;2023-08-06T12:10:07;100927.59;;;17.68;79.82
78383;BME280;67668;52.294;4.692;2023-08-06T12:12:34;100934.41;;;17.70;80.05
78383;BME280;67668;52.294;4.692;2023-08-06T12:15:01;100928.88;;;17.72;80.05
78383;BME280;67668;52.294;4.692;2023-08-06T12:17:27;100936.72;;;17.73;79.84
78383;BME280;67668;52.294;4.692;2023-08-06T12:19:53;100943.56;;;17.76;79.88
78383;BME280;67668;52.294;4.692;2023-08-06T12:22:18;100935.34;;;17.77;79.65
78383;BME280;67668;52.294;4.692;2023-08-06T12:24:46;100942.34;;;17.78;79.63
78383;BME280;67668;52.294;4.692;2023-08-06T12:27:12;100944.03;;;17.79;79.13
78383;BME280;67668;52.294;4.692;2023-08-06T12:29:47;100944.84;;;17.80;79.14
78383;BME280;67668;52.294;4.692;2023-08-06T12:32:13;100939.13;;;17.83;79.28
78383;BME280;67668;52.294;4.692;2023-08-06T12:34:40;100941.59;;;17.84;79.35
78383;BME280;67668;52.294;4.692;2023-08-06T12:37:06;100948.44;;;17.87;79.25
78383;BME280;67668;52.294;4.692;2023-08-06T12:39:36;100944.56;;;17.89;79.45
78383;BME280;67668;52.294;4.692;2023-08-06T12:42:05;100947.88;;;17.91;79.72
78383;BME280;67668;52.294;4.692;2023-08-06T12:44:31;100955.75;;;17.93;78.91
78383;BME280;67668;52.294;4.692;2023-08-06T12:46:57;100963.56;;;17.94;78.93
78383;BME280;67668;52.294;4.692;2023-08-06T12:49:23;100956.19;;;17.96;79.10
78383;BME280;67668;52.294;4.692;2023-08-06T12:51:50;100959.50;;;17.98;79.18
78383;BME280;67668;52.294;4.692;2023-08-06T12:54:20;100959.97;;;18.02;78.88